sensor_id;sensor_type;location;lat;lon;timestamp;P1;durP1;ratioP1;P2;durP2;ratioP2
19219;SDS011;9744;49.364;7.484;2022-12-29T00:01:33;8.70;;;4.60;;
19219;SDS011;9744;49.364;7.484;2022-12-29T00:04:02;7.10;;;5.00;;
19219;SDS011;9744;49.364;7.484;2022-12-29T00:06:30;7.63;;;5.45;;
19219;SDS011;9744;49.364;7.484;2022-12-29T00:08:58;11.52;;;4.93;;
19219;SDS011;9744;49.364;7.484;2022-12-29T00:11:25;8.85;;;4.95;;
19219;SDS011;9744;49.364;7.484;2022-12-29T00:13:53;7.75;;;4.78;;
19219;SDS011;9744;49.364;7.484;2022-12-29T00:16:40;8.45;;;4.72;;
19219;SDS011;9744;49.364;7.484;2022-12-29T00:19:10;10.25;;;5.00;;
19219;SDS011;9744;49.364;7.484;2022-12-29T00:21:51;10.13;;;4.93;;
19219;SDS011;9744;49.364;7.484;2022-12-29T00:24:33;11.27;;;4.70;;
19219;SDS011;9744;49.364;7.484;2022-12-29T00:27:17;5.43;;;3.40;;
19219;SDS011;9744;49.364;7.484;2022-12-29T00:30:02;8.77;;;4.00;;
19219;SDS011;9744;49.364;7.484;2022-12-29T00:32:52;7.85;;;2.92;;
19219;SDS011;9744;49.364;7.484;2022-12-29T00:35:38;5.93;;;3.55;;
19219;SDS011;9744;49.364;7.484;2022-12-29T00:38:10;7.68;;;3.20;;
19219;SDS011;9744;49.364;7.484;2022-12-29T00:40:56;6.22;;;2.70;;
19219;SDS011;9744;49.364;7.484;2022-12-29T00:43:40;5.93;;;2.90;;
19219;SDS011;9744;49.364;7.484;2022-12-29T00:46:26;8.32;;;2.63;;
19219;SDS011;9744;49.364;7.484;2022-12-29T00:48:54;3.92;;;2.33;;
19219;SDS011;9744;49.364;7.484;2022-12-29T00:51:40;4.57;;;2.30;;
19219;SDS011;9744;49.364;7.484;2022-12-29T00:54:08;9.27;;;2.45;;
19219;SDS011;9744;49.364;7.484;2022-12-29T00:56:35;5.63;;;2.17;;
19219;SDS011;9744;49.364;7.484;2022-12-29T00:59:03;5.22;;;2.05;;
19219;SDS011;9744;49.364;7.484;2022-12-29T01:01:31;4.65;;;2.10;;
19219;SDS011;9744;49.364;7.484;2022-12-29T01:04:00;7.28;;;2.30;;
19219;SDS011;9744;49.364;7.484;2022-12-29T01:06:27;2.45;;;2.00;;
19219;SDS011;9744;49.364;7.484;2022-12-29T01:08:56;6.40;;;2.20;;
19219;SDS011;9744;49.364;7.484;2022-12-29T01:11:40;3.20;;;2.00;;
19219;SDS011;9744;49.364;7.484;2022-12-29T01:14:08;4.95;;;2.40;;
19219;SDS011;9744;49.364;7.484;2022-12-29T01:16:35;5.10;;;2.13;;
19219;SDS011;9744;49.364;7.484;2022-12-29T01:19:03;6.00;;;2.67;;
19219;SDS011;9744;49.364;7.484;2022-12-29T01:21:30;5.53;;;2.42;;
19219;SDS011;9744;49.364;7.484;2022-12-29T01:24:01;6.78;;;2.90;;
19219;SDS011;9744;49.364;7.484;2022-12-29T01:26:29;5.18;;;3.13;;
19219;SDS011;9744;49.364;7.484;2022-12-29T01:28:57;6.00;;;3.45;;
19219;SDS011;9744;49.364;7.484;2022-12-29T01:31:28;3.38;;;2.72;;
19219;SDS011;9744;49.364;7.484;2022-12-29T01:33:55;5.63;;;3.33;;
19219;SDS011;9744;49.364;7.484;2022-12-29T01:36:23;8.52;;;3.00;;
19219;SDS011;9744;49.364;7.484;2022-12-29T01:38:51;9.40;;;3.58;;
19219;SDS011;9744;49.364;7.484;2022-12-29T01:41:21;5.80;;;2.97;;
19219;SDS011;9744;49.364;7.484;2022-12-29T01:43:49;7.45;;;2.72;;
19219;SDS011;9744;49.364;7.484;2022-12-29T01:46:20;4.32;;;2.97;;
19219;SDS011;9744;49.364;7.484;2022-12-29T01:48:54;8.85;;;3.70;;
19219;SDS011;9744;49.364;7.484;2022-12-29T01:51:25;6.78;;;3.25;;
19219;SDS011;9744;49.364;7.484;2022-12-29T01:53:54;6.05;;;3.30;;
19219;SDS011;9744;49.364;7.484;2022-12-29T01:56:25;9.52;;;4.10;;
19219;SDS011;9744;49.364;7.484;2022-12-29T01:58:54;7.20;;;3.10;;
19219;SDS011;9744;49.364;7.484;2022-12-29T02:01:26;9.80;;;3.60;;
19219;SDS011;9744;49.364;7.484;2022-12-29T02:03:55;8.40;;;3.58;;
19219;SDS011;9744;49.364;7.484;2022-12-29T02:06:23;6.25;;;3.50;;
19219;SDS011;9744;49.364;7.484;2022-12-29T02:08:54;6.38;;;2.92;;
19219;SDS011;9744;49.364;7.484;2022-12-29T02:11:25;5.85;;;3.03;;
19219;SDS011;9744;49.364;7.484;2022-12-29T02:13:54;4.80;;;2.88;;
19219;SDS011;9744;49.364;7.484;2022-12-29T02:16:27;6.60;;;2.70;;
19219;SDS011;9744;49.364;7.484;2022-12-29T02:19:12;5.63;;;2.67;;
19219;SDS011;9744;49.364;7.484;2022-12-29T02:22:08;5.63;;;2.72;;
19219;SDS011;9744;49.364;7.484;2022-12-29T02:27:46;8.35;;;2.65;;
19219;SDS011;9744;49.364;7.484;2022-12-29T02:30:37;8.50;;;2.63;;
19219;SDS011;9744;49.364;7.484;2022-12-29T02:33:18;5.43;;;2.80;;
19219;SDS011;9744;49.364;7.484;2022-12-29T02:35:54;5.40;;;2.70;;
19219;SDS011;9744;49.364;7.484;2022-12-29T02:38:31;6.82;;;2.25;;
19219;SDS011;9744;49.364;7.484;2022-12-29T02:41:13;6.40;;;2.53;;
19219;SDS011;9744;49.364;7.484;2022-12-29T02:43:47;4.80;;;2.50;;
19219;SDS011;9744;49.364;7.484;2022-12-29T02:46:20;5.38;;;2.63;;
19219;SDS011;9744;49.364;7.484;2022-12-29T02:48:55;5.93;;;2.42;;
19219;SDS011;9744;49.364;7.484;2022-12-29T02:51:35;5.40;;;2.58;;
19219;SDS011;9744;49.364;7.484;2022-12-29T02:54:07;13.40;;;2.25;;
19219;SDS011;9744;49.364;7.484;2022-12-29T02:56:52;7.63;;;2.50;;
19219;SDS011;9744;49.364;7.484;2022-12-29T02:59:19;12.40;;;2.90;;
19219;SDS011;9744;49.364;7.484;2022-12-29T03:01:55;8.82;;;2.50;;
19219;SDS011;9744;49.364;7.484;2022-12-29T03:04:51;5.13;;;2.20;;
19219;SDS011;9744;49.364;7.484;2022-12-29T03:07:39;3.08;;;1.90;;
19219;SDS011;9744;49.364;7.484;2022-12-29T03:10:14;3.50;;;2.33;;
19219;SDS011;9744;49.364;7.484;2022-12-29T03:12:51;8.32;;;2.25;;
19219;SDS011;9744;49.364;7.484;2022-12-29T03:15:45;6.22;;;2.10;;
19219;SDS011;9744;49.364;7.484;2022-12-29T03:18:29;4.55;;;2.10;;
19219;SDS011;9744;49.364;7.484;2022-12-29T03:21:07;3.95;;;1.95;;
19219;SDS011;9744;49.364;7.484;2022-12-29T03:23:42;5.13;;;1.77;;
19219;SDS011;9744;49.364;7.484;2022-12-29T03:26:13;4.85;;;2.03;;
19219;SDS011;9744;49.364;7.484;2022-12-29T03:28:45;3.60;;;2.33;;
19219;SDS011;9744;49.364;7.484;2022-12-29T03:31:20;6.40;;;2.10;;
19219;SDS011;9744;49.364;7.484;2022-12-29T03:33:53;4.97;;;2.30;;
19219;SDS011;9744;49.364;7.484;2022-12-29T03:36:23;2.30;;;1.88;;
19219;SDS011;9744;49.364;7.484;2022-12-29T03:38:58;6.20;;;2.90;;
19219;SDS011;9744;49.364;7.484;2022-12-29T03:41:30;5.18;;;2.17;;
19219;SDS011;9744;49.364;7.484;2022-12-29T03:44:01;6.35;;;2.92;;
19219;SDS011;9744;49.364;7.484;2022-12-29T03:46:29;12.27;;;2.00;;
19219;SDS011;9744;49.364;7.484;2022-12-29T03:48:58;5.40;;;1.90;;
19219;SDS011;9744;49.364;7.484;2022-12-29T03:54:04;4.70;;;1.98;;
19219;SDS011;9744;49.364;7.484;2022-12-29T03:59:43;4.90;;;1.83;;
19219;SDS011;9744;49.364;7.484;2022-12-29T04:02:11;3.10;;;1.98;;
19219;SDS011;9744;49.364;7.484;2022-12-29T04:04:40;2.45;;;1.52;;
19219;SDS011;9744;49.364;7.484;2022-12-29T04:07:07;4.03;;;2.05;;
19219;SDS011;9744;49.364;7.484;2022-12-29T04:09:35;3.20;;;1.73;;
19219;SDS011;9744;49.364;7.484;2022-12-29T04:17:49;6.45;;;1.60;;
19219;SDS011;9744;49.364;7.484;2022-12-29T04:32:05;4.20;;;2.08;;
19219;SDS011;9744;49.364;7.484;2022-12-29T04:34:35;3.63;;;1.90;;
19219;SDS011;9744;49.364;7.484;2022-12-29T04:37:02;4.78;;;2.00;;
19219;SDS011;9744;49.364;7.484;2022-12-29T04:39:31;4.68;;;2.03;;
19219;SDS011;9744;49.364;7.484;2022-12-29T04:45:00;4.25;;;1.60;;
19219;SDS011;9744;49.364;7.484;2022-12-29T04:47:49;4.18;;;2.05;;
19219;SDS011;9744;49.364;7.484;2022-12-29T04:53:21;7.53;;;1.80;;
19219;SDS011;9744;49.364;7.484;2022-12-29T05:07:06;3.47;;;1.65;;
19219;SDS011;9744;49.364;7.484;2022-12-29T05:12:16;3.85;;;1.75;;
19219;SDS011;9744;49.364;7.484;2022-12-29T05:18:01;4.30;;;1.88;;
19219;SDS011;9744;49.364;7.484;2022-12-29T05:20:28;6.10;;;1.83;;
19219;SDS011;9744;49.364;7.484;2022-12-29T05:34:29;4.50;;;2.22;;
19219;SDS011;9744;49.364;7.484;2022-12-29T05:36:58;2.78;;;1.55;;
19219;SDS011;9744;49.364;7.484;2022-12-29T06:40:07;12.77;;;5.10;;
19219;SDS011;9744;49.364;7.484;2022-12-29T06:48:17;6.90;;;2.72;;
19219;SDS011;9744;49.364;7.484;2022-12-29T07:01:54;5.82;;;2.65;;
19219;SDS011;9744;49.364;7.484;2022-12-29T07:06:59;5.75;;;2.85;;
19219;SDS011;9744;49.364;7.484;2022-12-29T07:09:26;5.72;;;3.60;;
19219;SDS011;9744;49.364;7.484;2022-12-29T07:11:53;8.20;;;2.63;;
19219;SDS011;9744;49.364;7.484;2022-12-29T07:14:21;8.07;;;2.65;;
19219;SDS011;9744;49.364;7.484;2022-12-29T07:16:48;7.38;;;3.30;;
19219;SDS011;9744;49.364;7.484;2022-12-29T07:19:23;6.65;;;2.60;;
19219;SDS011;9744;49.364;7.484;2022-12-29T07:21:54;6.85;;;2.65;;
19219;SDS011;9744;49.364;7.484;2022-12-29T07:30:06;7.45;;;3.17;;
19219;SDS011;9744;49.364;7.484;2022-12-29T07:38:13;5.82;;;2.90;;
19219;SDS011;9744;49.364;7.484;2022-12-29T07:40:41;8.38;;;3.17;;
19219;SDS011;9744;49.364;7.484;2022-12-29T07:43:09;7.75;;;2.80;;
19219;SDS011;9744;49.364;7.484;2022-12-29T07:45:42;5.57;;;3.30;;
19219;SDS011;9744;49.364;7.484;2022-12-29T07:51:14;7.97;;;3.72;;
19219;SDS011;9744;49.364;7.484;2022-12-29T08:00:40;9.43;;;3.58;;
19219;SDS011;9744;49.364;7.484;2022-12-29T08:11:54;10.73;;;4.28;;
19219;SDS011;9744;49.364;7.484;2022-12-29T08:18:04;11.27;;;4.53;;
19219;SDS011;9744;49.364;7.484;2022-12-29T08:20:33;10.23;;;3.88;;
19219;SDS011;9744;49.364;7.484;2022-12-29T08:31:31;15.50;;;5.25;;
19219;SDS011;9744;49.364;7.484;2022-12-29T09:48:31;11.68;;;5.75;;
19219;SDS011;9744;49.364;7.484;2022-12-29T09:57:04;9.23;;;4.60;;
19219;SDS011;9744;49.364;7.484;2022-12-29T10:02:34;9.27;;;4.18;;
19219;SDS011;9744;49.364;7.484;2022-12-29T10:09:06;7.32;;;3.50;;
19219;SDS011;9744;49.364;7.484;2022-12-29T10:20:28;7.57;;;3.42;;
19219;SDS011;9744;49.364;7.484;2022-12-29T10:23:04;6.32;;;3.05;;
19219;SDS011;9744;49.364;7.484;2022-12-29T10:25:48;7.45;;;2.35;;
19219;SDS011;9744;49.364;7.484;2022-12-29T10:28:20;5.72;;;2.28;;
19219;SDS011;9744;49.364;7.484;2022-12-29T10:30:51;4.03;;;1.55;;
19219;SDS011;9744;49.364;7.484;2022-12-29T10:36:21;7.60;;;2.97;;
19219;SDS011;9744;49.364;7.484;2022-12-29T10:38:58;3.78;;;0.80;;
19219;SDS011;9744;49.364;7.484;2022-12-29T10:41:38;4.60;;;0.80;;
19219;SDS011;9744;49.364;7.484;2022-12-29T10:44:23;3.75;;;1.00;;
19219;SDS011;9744;49.364;7.484;2022-12-29T21:19:54;12.43;;;2.42;;
19219;SDS011;9744;49.364;7.484;2022-12-29T21:22:22;10.95;;;1.85;;
19219;SDS011;9744;49.364;7.484;2022-12-29T21:24:49;13.20;;;1.95;;
19219;SDS011;9744;49.364;7.484;2022-12-29T21:27:16;20.67;;;2.38;;
19219;SDS011;9744;49.364;7.484;2022-12-29T21:29:43;20.95;;;3.33;;
19219;SDS011;9744;49.364;7.484;2022-12-29T21:32:10;17.95;;;2.08;;
19219;SDS011;9744;49.364;7.484;2022-12-29T21:34:37;7.07;;;1.60;;
19219;SDS011;9744;49.364;7.484;2022-12-29T21:42:43;12.00;;;2.10;;
19219;SDS011;9744;49.364;7.484;2022-12-29T21:45:11;9.90;;;2.03;;
19219;SDS011;9744;49.364;7.484;2022-12-29T21:47:56;13.05;;;1.88;;
19219;SDS011;9744;49.364;7.484;2022-12-29T21:50:42;17.45;;;1.67;;
19219;SDS011;9744;49.364;7.484;2022-12-29T21:53:25;12.38;;;2.22;;
19219;SDS011;9744;49.364;7.484;2022-12-29T21:56:03;15.20;;;2.30;;
19219;SDS011;9744;49.364;7.484;2022-12-29T21:58:33;17.83;;;2.58;;
19219;SDS011;9744;49.364;7.484;2022-12-29T22:01:19;8.32;;;2.10;;
19219;SDS011;9744;49.364;7.484;2022-12-29T22:04:04;14.50;;;3.30;;
19219;SDS011;9744;49.364;7.484;2022-12-29T22:06:49;15.50;;;2.50;;
19219;SDS011;9744;49.364;7.484;2022-12-29T22:09:34;17.17;;;1.95;;
19219;SDS011;9744;49.364;7.484;2022-12-29T22:12:23;13.00;;;2.00;;
19219;SDS011;9744;49.364;7.484;2022-12-29T22:15:09;13.20;;;2.30;;
19219;SDS011;9744;49.364;7.484;2022-12-29T22:17:36;12.65;;;2.63;;
19219;SDS011;9744;49.364;7.484;2022-12-29T22:20:04;18.20;;;2.17;;
19219;SDS011;9744;49.364;7.484;2022-12-29T22:22:32;13.65;;;2.05;;
19219;SDS011;9744;49.364;7.484;2022-12-29T22:24:59;10.80;;;2.30;;
19219;SDS011;9744;49.364;7.484;2022-12-29T22:27:27;21.42;;;2.47;;
19219;SDS011;9744;49.364;7.484;2022-12-29T22:29:54;9.48;;;1.83;;
19219;SDS011;9744;49.364;7.484;2022-12-29T22:32:22;15.75;;;2.88;;
19219;SDS011;9744;49.364;7.484;2022-12-29T22:34:49;21.98;;;3.03;;
19219;SDS011;9744;49.364;7.484;2022-12-29T22:37:17;14.50;;;1.92;;
19219;SDS011;9744;49.364;7.484;2022-12-29T22:39:44;18.58;;;2.65;;
19219;SDS011;9744;49.364;7.484;2022-12-29T22:42:11;23.27;;;2.33;;
19219;SDS011;9744;49.364;7.484;2022-12-29T22:44:38;10.88;;;2.08;;
19219;SDS011;9744;49.364;7.484;2022-12-29T22:47:05;19.25;;;2.15;;
19219;SDS011;9744;49.364;7.484;2022-12-29T22:49:34;17.52;;;2.30;;
19219;SDS011;9744;49.364;7.484;2022-12-29T22:52:01;13.38;;;2.08;;
19219;SDS011;9744;49.364;7.484;2022-12-29T22:54:29;20.92;;;2.78;;
19219;SDS011;9744;49.364;7.484;2022-12-29T22:56:56;15.77;;;2.28;;
19219;SDS011;9744;49.364;7.484;2022-12-29T22:59:23;14.15;;;3.15;;
19219;SDS011;9744;49.364;7.484;2022-12-29T23:01:50;19.85;;;2.60;;
19219;SDS011;9744;49.364;7.484;2022-12-29T23:04:17;16.20;;;2.70;;
19219;SDS011;9744;49.364;7.484;2022-12-29T23:06:46;23.98;;;4.40;;
19219;SDS011;9744;49.364;7.484;2022-12-29T23:09:14;20.77;;;3.17;;
19219;SDS011;9744;49.364;7.484;2022-12-29T23:11:45;14.90;;;2.50;;
19219;SDS011;9744;49.364;7.484;2022-12-29T23:14:13;23.90;;;3.60;;
19219;SDS011;9744;49.364;7.484;2022-12-29T23:16:41;18.40;;;2.85;;
19219;SDS011;9744;49.364;7.484;2022-12-29T23:19:09;18.35;;;2.35;;
19219;SDS011;9744;49.364;7.484;2022-12-29T23:21:36;18.33;;;2.60;;
19219;SDS011;9744;49.364;7.484;2022-12-29T23:24:05;21.55;;;3.15;;
19219;SDS011;9744;49.364;7.484;2022-12-29T23:26:37;16.33;;;2.55;;
19219;SDS011;9744;49.364;7.484;2022-12-29T23:29:06;19.67;;;2.95;;
19219;SDS011;9744;49.364;7.484;2022-12-29T23:31:35;22.58;;;3.13;;
19219;SDS011;9744;49.364;7.484;2022-12-29T23:34:03;17.50;;;2.63;;
19219;SDS011;9744;49.364;7.484;2022-12-29T23:36:31;17.88;;;3.72;;
19219;SDS011;9744;49.364;7.484;2022-12-29T23:38:59;20.48;;;2.90;;
19219;SDS011;9744;49.364;7.484;2022-12-29T23:41:27;14.52;;;2.97;;
19219;SDS011;9744;49.364;7.484;2022-12-29T23:43:55;17.80;;;2.95;;
19219;SDS011;9744;49.364;7.484;2022-12-29T23:46:23;17.67;;;2.42;;
19219;SDS011;9744;49.364;7.484;2022-12-29T23:48:51;22.60;;;3.15;;
19219;SDS011;9744;49.364;7.484;2022-12-29T23:51:19;16.27;;;2.67;;
19219;SDS011;9744;49.364;7.484;2022-12-29T23:53:46;19.77;;;3.25;;
19219;SDS011;9744;49.364;7.484;2022-12-29T23:56:14;29.13;;;3.17;;
19219;SDS011;9744;49.364;7.484;2022-12-29T23:58:44;20.42;;;2.35;;
